sensor_id;sensor_type;location;lat;lon;timestamp;P1;durP1;ratioP1;P2;durP2;ratioP2
15381;SDS011;7789;51.364;12.358;2023-08-21T00:00:51;5.28;;;2.35;;
15381;SDS011;7789;51.364;12.358;2023-08-21T00:05:59;3.03;;;2.53;;
15381;SDS011;7789;51.364;12.358;2023-08-21T00:11:05;4.47;;;2.40;;
15381;SDS011;7789;51.364;12.358;2023-08-21T00:16:13;3.60;;;2.28;;
15381;SDS011;7789;51.364;12.358;2023-08-21T00:21:19;4.20;;;2.70;;
15381;SDS011;7789;51.364;12.358;2023-08-21T00:26:34;3.15;;;2.70;;
15381;SDS011;7789;51.364;12.358;2023-08-21T00:31:42;5.38;;;2.55;;
15381;SDS011;7789;51.364;12.358;2023-08-21T00:36:47;3.88;;;2.30;;
15381;SDS011;7789;51.364;12.358;2023-08-21T00:42:02;4.18;;;2.78;;
15381;SDS011;7789;51.364;12.358;2023-08-21T00:47:11;3.78;;;2.92;;
15381;SDS011;7789;51.364;12.358;2023-08-21T00:52:21;5.43;;;2.50;;
15381;SDS011;7789;51.364;12.358;2023-08-21T00:57:29;5.43;;;2.63;;
15381;SDS011;7789;51.364;12.358;2023-08-21T01:02:43;3.22;;;2.60;;
15381;SDS011;7789;51.364;12.358;2023-08-21T01:07:56;4.68;;;2.60;;
15381;SDS011;7789;51.364;12.358;2023-08-21T01:13:09;2.58;;;2.35;;
15381;SDS011;7789;51.364;12.358;2023-08-21T01:18:24;3.92;;;2.88;;
15381;SDS011;7789;51.364;12.358;2023-08-21T01:23:43;2.72;;;2.53;;
15381;SDS011;7789;51.364;12.358;2023-08-21T01:28:49;3.30;;;2.63;;
15381;SDS011;7789;51.364;12.358;2023-08-21T01:33:58;4.18;;;2.80;;
15381;SDS011;7789;51.364;12.358;2023-08-21T01:39:12;3.42;;;2.40;;
15381;SDS011;7789;51.364;12.358;2023-08-21T01:44:17;3.00;;;2.42;;
15381;SDS011;7789;51.364;12.358;2023-08-21T01:49:23;2.90;;;2.42;;
15381;SDS011;7789;51.364;12.358;2023-08-21T01:54:35;3.95;;;2.60;;
15381;SDS011;7789;51.364;12.358;2023-08-21T01:59:41;3.35;;;2.65;;
15381;SDS011;7789;51.364;12.358;2023-08-21T02:04:46;5.07;;;2.88;;
15381;SDS011;7789;51.364;12.358;2023-08-21T02:09:59;5.20;;;2.72;;
15381;SDS011;7789;51.364;12.358;2023-08-21T02:15:03;3.97;;;2.72;;
15381;SDS011;7789;51.364;12.358;2023-08-21T02:20:12;2.95;;;2.75;;
15381;SDS011;7789;51.364;12.358;2023-08-21T02:25:19;5.28;;;3.00;;
15381;SDS011;7789;51.364;12.358;2023-08-21T02:30:27;5.20;;;2.65;;
15381;SDS011;7789;51.364;12.358;2023-08-21T02:35:38;5.50;;;3.00;;
15381;SDS011;7789;51.364;12.358;2023-08-21T02:41:00;3.20;;;2.70;;
15381;SDS011;7789;51.364;12.358;2023-08-21T02:46:05;4.75;;;3.55;;
15381;SDS011;7789;51.364;12.358;2023-08-21T02:51:15;3.30;;;2.50;;
15381;SDS011;7789;51.364;12.358;2023-08-21T02:56:30;5.38;;;3.10;;
15381;SDS011;7789;51.364;12.358;2023-08-21T03:01:35;6.88;;;3.78;;
15381;SDS011;7789;51.364;12.358;2023-08-21T03:06:42;6.88;;;3.45;;
15381;SDS011;7789;51.364;12.358;2023-08-21T03:11:55;4.38;;;3.40;;
15381;SDS011;7789;51.364;12.358;2023-08-21T03:17:01;5.57;;;3.35;;
15381;SDS011;7789;51.364;12.358;2023-08-21T03:22:15;4.25;;;3.30;;
15381;SDS011;7789;51.364;12.358;2023-08-21T03:27:32;4.18;;;2.75;;
15381;SDS011;7789;51.364;12.358;2023-08-21T03:32:43;3.83;;;3.00;;
15381;SDS011;7789;51.364;12.358;2023-08-21T03:37:49;5.68;;;3.40;;
15381;SDS011;7789;51.364;12.358;2023-08-21T03:43:01;4.75;;;3.15;;
15381;SDS011;7789;51.364;12.358;2023-08-21T03:48:08;5.97;;;3.45;;
15381;SDS011;7789;51.364;12.358;2023-08-21T03:53:14;4.80;;;3.55;;
15381;SDS011;7789;51.364;12.358;2023-08-21T04:03:49;6.63;;;3.85;;
15381;SDS011;7789;51.364;12.358;2023-08-21T04:08:57;4.32;;;3.40;;
15381;SDS011;7789;51.364;12.358;2023-08-21T04:19:36;5.30;;;3.97;;
15381;SDS011;7789;51.364;12.358;2023-08-21T04:24:43;5.32;;;3.95;;
15381;SDS011;7789;51.364;12.358;2023-08-21T04:35:15;5.40;;;3.80;;
15381;SDS011;7789;51.364;12.358;2023-08-21T04:40:20;5.43;;;4.25;;
15381;SDS011;7789;51.364;12.358;2023-08-21T04:45:37;7.13;;;4.35;;
15381;SDS011;7789;51.364;12.358;2023-08-21T04:51:15;7.63;;;5.15;;
15381;SDS011;7789;51.364;12.358;2023-08-21T04:56:21;5.00;;;4.50;;
15381;SDS011;7789;51.364;12.358;2023-08-21T05:01:29;9.65;;;5.13;;
15381;SDS011;7789;51.364;12.358;2023-08-21T05:06:44;5.65;;;4.57;;
15381;SDS011;7789;51.364;12.358;2023-08-21T05:11:53;5.22;;;4.70;;
15381;SDS011;7789;51.364;12.358;2023-08-21T05:17:05;5.13;;;4.57;;
15381;SDS011;7789;51.364;12.358;2023-08-21T05:22:10;5.47;;;4.32;;
15381;SDS011;7789;51.364;12.358;2023-08-21T05:27:19;7.15;;;4.70;;
15381;SDS011;7789;51.364;12.358;2023-08-21T05:32:30;6.47;;;4.30;;
15381;SDS011;7789;51.364;12.358;2023-08-21T05:37:35;8.18;;;4.97;;
15381;SDS011;7789;51.364;12.358;2023-08-21T05:42:45;8.55;;;4.82;;
15381;SDS011;7789;51.364;12.358;2023-08-21T05:47:52;5.47;;;4.60;;
15381;SDS011;7789;51.364;12.358;2023-08-21T05:52:57;8.35;;;4.90;;
15381;SDS011;7789;51.364;12.358;2023-08-21T05:58:04;10.55;;;4.70;;
15381;SDS011;7789;51.364;12.358;2023-08-21T06:03:11;11.80;;;4.88;;
15381;SDS011;7789;51.364;12.358;2023-08-21T06:08:16;6.70;;;4.70;;
15381;SDS011;7789;51.364;12.358;2023-08-21T06:13:21;7.78;;;4.35;;
15381;SDS011;7789;51.364;12.358;2023-08-21T06:18:31;8.23;;;4.70;;
15381;SDS011;7789;51.364;12.358;2023-08-21T06:23:36;9.82;;;4.63;;
15381;SDS011;7789;51.364;12.358;2023-08-21T06:28:44;7.38;;;4.22;;
15381;SDS011;7789;51.364;12.358;2023-08-21T06:33:51;6.07;;;4.38;;
15381;SDS011;7789;51.364;12.358;2023-08-21T06:38:58;7.38;;;4.35;;
15381;SDS011;7789;51.364;12.358;2023-08-21T06:44:07;9.32;;;4.25;;
15381;SDS011;7789;51.364;12.358;2023-08-21T06:49:21;5.78;;;4.15;;
15381;SDS011;7789;51.364;12.358;2023-08-21T06:54:28;9.88;;;4.30;;
15381;SDS011;7789;51.364;12.358;2023-08-21T06:59:33;7.85;;;4.20;;
15381;SDS011;7789;51.364;12.358;2023-08-21T07:04:47;6.47;;;4.05;;
15381;SDS011;7789;51.364;12.358;2023-08-21T07:10:00;6.07;;;3.55;;
15381;SDS011;7789;51.364;12.358;2023-08-21T07:15:05;12.25;;;4.18;;
15381;SDS011;7789;51.364;12.358;2023-08-21T07:20:16;5.50;;;4.10;;
15381;SDS011;7789;51.364;12.358;2023-08-21T07:25:20;6.50;;;3.90;;
15381;SDS011;7789;51.364;12.358;2023-08-21T07:30:28;6.38;;;4.68;;
15381;SDS011;7789;51.364;12.358;2023-08-21T07:35:39;5.82;;;4.22;;
15381;SDS011;7789;51.364;12.358;2023-08-21T07:40:51;9.60;;;5.00;;
15381;SDS011;7789;51.364;12.358;2023-08-21T07:46:06;5.28;;;4.68;;
15381;SDS011;7789;51.364;12.358;2023-08-21T07:51:17;11.65;;;4.97;;
15381;SDS011;7789;51.364;12.358;2023-08-21T07:56:23;8.00;;;4.60;;
15381;SDS011;7789;51.364;12.358;2023-08-21T08:01:27;8.75;;;4.40;;
15381;SDS011;7789;51.364;12.358;2023-08-21T08:06:32;10.25;;;5.45;;
15381;SDS011;7789;51.364;12.358;2023-08-21T08:11:49;8.70;;;5.68;;
15381;SDS011;7789;51.364;12.358;2023-08-21T08:16:59;13.13;;;5.43;;
15381;SDS011;7789;51.364;12.358;2023-08-21T08:22:05;10.07;;;6.03;;
15381;SDS011;7789;51.364;12.358;2023-08-21T08:27:12;8.82;;;5.28;;
15381;SDS011;7789;51.364;12.358;2023-08-21T08:32:22;11.32;;;10.05;;
15381;SDS011;7789;51.364;12.358;2023-08-21T08:37:32;6.55;;;4.90;;
15381;SDS011;7789;51.364;12.358;2023-08-21T08:42:40;4.85;;;3.95;;
15381;SDS011;7789;51.364;12.358;2023-08-21T08:47:47;8.27;;;4.28;;
15381;SDS011;7789;51.364;12.358;2023-08-21T08:52:55;5.40;;;3.60;;
15381;SDS011;7789;51.364;12.358;2023-08-21T08:58:17;4.55;;;3.63;;
15381;SDS011;7789;51.364;12.358;2023-08-21T09:03:23;7.35;;;3.80;;
15381;SDS011;7789;51.364;12.358;2023-08-21T09:08:34;7.38;;;3.75;;
15381;SDS011;7789;51.364;12.358;2023-08-21T09:13:44;4.93;;;3.83;;
15381;SDS011;7789;51.364;12.358;2023-08-21T09:18:50;4.97;;;3.33;;
15381;SDS011;7789;51.364;12.358;2023-08-21T09:23:58;4.43;;;2.75;;
15381;SDS011;7789;51.364;12.358;2023-08-21T09:29:04;6.22;;;3.33;;
15381;SDS011;7789;51.364;12.358;2023-08-21T09:34:10;4.57;;;3.03;;
15381;SDS011;7789;51.364;12.358;2023-08-21T09:39:18;5.38;;;3.20;;
15381;SDS011;7789;51.364;12.358;2023-08-21T09:44:26;5.50;;;3.20;;
15381;SDS011;7789;51.364;12.358;2023-08-21T09:49:30;3.85;;;3.08;;
15381;SDS011;7789;51.364;12.358;2023-08-21T09:54:39;4.00;;;2.80;;
15381;SDS011;7789;51.364;12.358;2023-08-21T09:59:44;3.55;;;2.20;;
15381;SDS011;7789;51.364;12.358;2023-08-21T10:04:49;2.70;;;2.47;;
15381;SDS011;7789;51.364;12.358;2023-08-21T10:10:01;2.78;;;2.00;;
15381;SDS011;7789;51.364;12.358;2023-08-21T10:15:06;2.72;;;2.03;;
15381;SDS011;7789;51.364;12.358;2023-08-21T10:20:20;3.42;;;1.90;;
15381;SDS011;7789;51.364;12.358;2023-08-21T10:25:31;2.00;;;1.73;;
15381;SDS011;7789;51.364;12.358;2023-08-21T10:30:46;9.10;;;1.70;;
15381;SDS011;7789;51.364;12.358;2023-08-21T10:35:53;2.25;;;1.55;;
15381;SDS011;7789;51.364;12.358;2023-08-21T10:41:08;2.38;;;1.30;;
15381;SDS011;7789;51.364;12.358;2023-08-21T10:46:12;5.07;;;1.50;;
15381;SDS011;7789;51.364;12.358;2023-08-21T10:51:20;2.08;;;1.30;;
15381;SDS011;7789;51.364;12.358;2023-08-21T10:56:26;2.05;;;1.30;;
15381;SDS011;7789;51.364;12.358;2023-08-21T11:01:44;1.98;;;1.17;;
15381;SDS011;7789;51.364;12.358;2023-08-21T11:06:50;1.98;;;1.17;;
15381;SDS011;7789;51.364;12.358;2023-08-21T11:12:06;2.65;;;1.20;;
15381;SDS011;7789;51.364;12.358;2023-08-21T11:17:13;1.92;;;1.33;;
15381;SDS011;7789;51.364;12.358;2023-08-21T11:22:19;1.75;;;1.40;;
15381;SDS011;7789;51.364;12.358;2023-08-21T11:32:49;1.58;;;1.23;;
15381;SDS011;7789;51.364;12.358;2023-08-21T11:38:14;1.67;;;1.23;;
15381;SDS011;7789;51.364;12.358;2023-08-21T11:43:33;1.92;;;1.10;;
15381;SDS011;7789;51.364;12.358;2023-08-21T11:48:39;3.83;;;1.80;;
15381;SDS011;7789;51.364;12.358;2023-08-21T11:53:47;3.03;;;1.42;;
15381;SDS011;7789;51.364;12.358;2023-08-21T12:04:29;3.88;;;1.88;;
15381;SDS011;7789;51.364;12.358;2023-08-21T12:09:45;3.00;;;1.67;;
15381;SDS011;7789;51.364;12.358;2023-08-21T12:14:55;5.38;;;1.90;;
15381;SDS011;7789;51.364;12.358;2023-08-21T12:20:18;5.47;;;2.10;;
15381;SDS011;7789;51.364;12.358;2023-08-21T12:25:22;5.28;;;3.60;;
15381;SDS011;7789;51.364;12.358;2023-08-21T12:30:29;4.85;;;1.85;;
15381;SDS011;7789;51.364;12.358;2023-08-21T12:35:37;3.58;;;1.90;;
15381;SDS011;7789;51.364;12.358;2023-08-21T12:40:44;5.18;;;2.40;;
15381;SDS011;7789;51.364;12.358;2023-08-21T12:45:49;2.90;;;2.25;;
15381;SDS011;7789;51.364;12.358;2023-08-21T12:50:58;3.22;;;2.63;;
15381;SDS011;7789;51.364;12.358;2023-08-21T12:56:04;3.42;;;2.38;;
15381;SDS011;7789;51.364;12.358;2023-08-21T13:01:11;2.33;;;2.13;;
15381;SDS011;7789;51.364;12.358;2023-08-21T13:06:17;7.78;;;2.72;;
15381;SDS011;7789;51.364;12.358;2023-08-21T13:11:26;3.85;;;2.17;;
15381;SDS011;7789;51.364;12.358;2023-08-21T13:16:34;3.35;;;2.38;;
15381;SDS011;7789;51.364;12.358;2023-08-21T13:21:46;3.22;;;2.20;;
15381;SDS011;7789;51.364;12.358;2023-08-21T13:27:06;3.47;;;2.17;;
15381;SDS011;7789;51.364;12.358;2023-08-21T13:32:20;3.58;;;2.50;;
15381;SDS011;7789;51.364;12.358;2023-08-21T13:37:28;3.05;;;2.17;;
15381;SDS011;7789;51.364;12.358;2023-08-21T13:42:34;3.28;;;2.92;;
15381;SDS011;7789;51.364;12.358;2023-08-21T13:47:39;7.20;;;2.53;;
15381;SDS011;7789;51.364;12.358;2023-08-21T13:52:47;2.38;;;2.17;;
15381;SDS011;7789;51.364;12.358;2023-08-21T13:57:53;3.30;;;2.40;;
15381;SDS011;7789;51.364;12.358;2023-08-21T14:03:02;4.97;;;1.80;;
15381;SDS011;7789;51.364;12.358;2023-08-21T14:08:08;3.13;;;2.17;;
15381;SDS011;7789;51.364;12.358;2023-08-21T14:13:15;2.53;;;2.08;;
15381;SDS011;7789;51.364;12.358;2023-08-21T14:18:19;3.67;;;2.08;;
15381;SDS011;7789;51.364;12.358;2023-08-21T14:23:27;3.65;;;2.30;;
15381;SDS011;7789;51.364;12.358;2023-08-21T14:28:35;3.95;;;1.90;;
15381;SDS011;7789;51.364;12.358;2023-08-21T14:33:43;2.97;;;2.47;;
15381;SDS011;7789;51.364;12.358;2023-08-21T14:38:50;5.13;;;2.60;;
15381;SDS011;7789;51.364;12.358;2023-08-21T14:43:54;3.92;;;2.83;;
15381;SDS011;7789;51.364;12.358;2023-08-21T14:49:00;2.95;;;2.30;;
15381;SDS011;7789;51.364;12.358;2023-08-21T14:54:09;2.10;;;1.90;;
15381;SDS011;7789;51.364;12.358;2023-08-21T14:59:18;3.53;;;2.70;;
15381;SDS011;7789;51.364;12.358;2023-08-21T15:04:25;2.80;;;2.20;;
15381;SDS011;7789;51.364;12.358;2023-08-21T15:09:44;3.50;;;2.83;;
15381;SDS011;7789;51.364;12.358;2023-08-21T15:14:51;3.97;;;2.70;;
15381;SDS011;7789;51.364;12.358;2023-08-21T15:19:57;3.88;;;2.83;;
15381;SDS011;7789;51.364;12.358;2023-08-21T15:25:10;2.38;;;2.17;;
15381;SDS011;7789;51.364;12.358;2023-08-21T15:30:14;2.58;;;2.28;;
15381;SDS011;7789;51.364;12.358;2023-08-21T15:35:22;4.00;;;2.47;;
15381;SDS011;7789;51.364;12.358;2023-08-21T15:40:34;4.65;;;2.90;;
15381;SDS011;7789;51.364;12.358;2023-08-21T15:45:38;4.35;;;2.35;;
15381;SDS011;7789;51.364;12.358;2023-08-21T15:50:45;2.97;;;2.40;;
15381;SDS011;7789;51.364;12.358;2023-08-21T15:55:56;5.25;;;2.45;;
15381;SDS011;7789;51.364;12.358;2023-08-21T16:01:02;3.08;;;2.28;;
15381;SDS011;7789;51.364;12.358;2023-08-21T16:06:08;3.28;;;2.20;;
15381;SDS011;7789;51.364;12.358;2023-08-21T16:11:15;4.45;;;2.28;;
15381;SDS011;7789;51.364;12.358;2023-08-21T16:16:21;3.15;;;2.85;;
15381;SDS011;7789;51.364;12.358;2023-08-21T16:21:45;4.35;;;2.03;;
15381;SDS011;7789;51.364;12.358;2023-08-21T16:26:53;3.70;;;2.22;;
15381;SDS011;7789;51.364;12.358;2023-08-21T16:32:00;4.47;;;2.70;;
15381;SDS011;7789;51.364;12.358;2023-08-21T16:37:07;5.68;;;3.50;;
15381;SDS011;7789;51.364;12.358;2023-08-21T16:42:17;2.38;;;2.17;;
15381;SDS011;7789;51.364;12.358;2023-08-21T16:47:22;2.45;;;2.17;;
15381;SDS011;7789;51.364;12.358;2023-08-21T16:52:28;4.78;;;2.20;;
15381;SDS011;7789;51.364;12.358;2023-08-21T16:57:40;3.40;;;2.20;;
15381;SDS011;7789;51.364;12.358;2023-08-21T17:02:45;3.55;;;2.47;;
15381;SDS011;7789;51.364;12.358;2023-08-21T17:07:51;4.85;;;3.10;;
15381;SDS011;7789;51.364;12.358;2023-08-21T17:13:05;5.75;;;3.05;;
15381;SDS011;7789;51.364;12.358;2023-08-21T17:18:22;3.05;;;2.22;;
15381;SDS011;7789;51.364;12.358;2023-08-21T17:23:28;4.70;;;1.95;;
15381;SDS011;7789;51.364;12.358;2023-08-21T17:28:38;4.10;;;1.92;;
15381;SDS011;7789;51.364;12.358;2023-08-21T17:33:46;3.20;;;1.90;;
15381;SDS011;7789;51.364;12.358;2023-08-21T17:39:13;2.85;;;2.38;;
15381;SDS011;7789;51.364;12.358;2023-08-21T17:44:28;2.95;;;1.92;;
15381;SDS011;7789;51.364;12.358;2023-08-21T17:49:40;2.70;;;2.00;;
15381;SDS011;7789;51.364;12.358;2023-08-21T17:54:53;4.22;;;2.20;;
15381;SDS011;7789;51.364;12.358;2023-08-21T18:00:02;2.15;;;1.92;;
15381;SDS011;7789;51.364;12.358;2023-08-21T18:05:19;4.65;;;2.15;;
15381;SDS011;7789;51.364;12.358;2023-08-21T18:10:23;3.08;;;2.00;;
15381;SDS011;7789;51.364;12.358;2023-08-21T18:15:28;5.07;;;1.83;;
15381;SDS011;7789;51.364;12.358;2023-08-21T18:20:46;4.57;;;2.08;;
15381;SDS011;7789;51.364;12.358;2023-08-21T18:25:51;9.52;;;7.32;;
15381;SDS011;7789;51.364;12.358;2023-08-21T18:31:08;3.38;;;1.77;;
15381;SDS011;7789;51.364;12.358;2023-08-21T18:36:13;3.17;;;1.67;;
15381;SDS011;7789;51.364;12.358;2023-08-21T18:41:19;3.88;;;1.60;;
15381;SDS011;7789;51.364;12.358;2023-08-21T18:46:43;4.75;;;1.60;;
15381;SDS011;7789;51.364;12.358;2023-08-21T18:51:58;2.75;;;1.58;;
15381;SDS011;7789;51.364;12.358;2023-08-21T18:57:04;3.80;;;1.55;;
15381;SDS011;7789;51.364;12.358;2023-08-21T19:02:13;2.58;;;1.48;;
15381;SDS011;7789;51.364;12.358;2023-08-21T19:07:18;4.32;;;1.50;;
15381;SDS011;7789;51.364;12.358;2023-08-21T19:12:27;3.83;;;1.50;;
15381;SDS011;7789;51.364;12.358;2023-08-21T19:17:36;5.10;;;1.33;;
15381;SDS011;7789;51.364;12.358;2023-08-21T19:22:44;3.03;;;1.40;;
15381;SDS011;7789;51.364;12.358;2023-08-21T19:27:54;2.75;;;2.30;;
15381;SDS011;7789;51.364;12.358;2023-08-21T19:33:09;4.40;;;1.85;;
15381;SDS011;7789;51.364;12.358;2023-08-21T19:38:16;3.00;;;1.85;;
15381;SDS011;7789;51.364;12.358;2023-08-21T19:43:24;3.38;;;1.55;;
15381;SDS011;7789;51.364;12.358;2023-08-21T19:48:31;4.50;;;1.85;;
15381;SDS011;7789;51.364;12.358;2023-08-21T19:53:40;9.07;;;4.82;;
15381;SDS011;7789;51.364;12.358;2023-08-21T19:58:45;6.55;;;2.85;;
15381;SDS011;7789;51.364;12.358;2023-08-21T20:03:58;3.80;;;1.48;;
15381;SDS011;7789;51.364;12.358;2023-08-21T20:09:03;4.10;;;1.73;;
15381;SDS011;7789;51.364;12.358;2023-08-21T20:14:09;3.05;;;1.70;;
15381;SDS011;7789;51.364;12.358;2023-08-21T20:19:15;2.20;;;1.30;;
15381;SDS011;7789;51.364;12.358;2023-08-21T20:24:22;6.53;;;1.50;;
15381;SDS011;7789;51.364;12.358;2023-08-21T20:29:26;7.68;;;1.63;;
15381;SDS011;7789;51.364;12.358;2023-08-21T20:34:34;3.65;;;1.52;;
15381;SDS011;7789;51.364;12.358;2023-08-21T20:39:40;5.95;;;1.65;;
15381;SDS011;7789;51.364;12.358;2023-08-21T20:44:49;2.63;;;1.52;;
15381;SDS011;7789;51.364;12.358;2023-08-21T20:49:56;3.83;;;1.60;;
15381;SDS011;7789;51.364;12.358;2023-08-21T20:55:06;5.22;;;1.60;;
15381;SDS011;7789;51.364;12.358;2023-08-21T21:00:12;5.55;;;2.85;;
15381;SDS011;7789;51.364;12.358;2023-08-21T21:05:20;3.83;;;2.40;;
15381;SDS011;7789;51.364;12.358;2023-08-21T21:10:25;3.00;;;1.30;;
15381;SDS011;7789;51.364;12.358;2023-08-21T21:15:30;2.33;;;1.27;;
15381;SDS011;7789;51.364;12.358;2023-08-21T21:20:38;3.15;;;1.65;;
15381;SDS011;7789;51.364;12.358;2023-08-21T21:25:42;3.33;;;1.35;;
15381;SDS011;7789;51.364;12.358;2023-08-21T21:30:54;4.35;;;1.40;;
15381;SDS011;7789;51.364;12.358;2023-08-21T21:36:01;4.00;;;1.52;;
15381;SDS011;7789;51.364;12.358;2023-08-21T21:41:09;2.53;;;1.23;;
15381;SDS011;7789;51.364;12.358;2023-08-21T21:46:14;4.18;;;1.38;;
15381;SDS011;7789;51.364;12.358;2023-08-21T21:51:27;2.30;;;1.70;;
15381;SDS011;7789;51.364;12.358;2023-08-21T21:56:32;3.45;;;1.50;;
15381;SDS011;7789;51.364;12.358;2023-08-21T22:01:39;4.93;;;1.48;;
15381;SDS011;7789;51.364;12.358;2023-08-21T22:06:47;2.80;;;1.20;;
15381;SDS011;7789;51.364;12.358;2023-08-21T22:11:59;3.15;;;1.58;;
15381;SDS011;7789;51.364;12.358;2023-08-21T22:17:09;2.85;;;1.33;;
15381;SDS011;7789;51.364;12.358;2023-08-21T22:22:24;3.25;;;1.30;;
15381;SDS011;7789;51.364;12.358;2023-08-21T22:27:28;3.58;;;1.65;;
15381;SDS011;7789;51.364;12.358;2023-08-21T22:32:34;4.80;;;1.40;;
15381;SDS011;7789;51.364;12.358;2023-08-21T22:37:41;3.08;;;1.70;;
15381;SDS011;7789;51.364;12.358;2023-08-21T22:42:48;3.58;;;1.58;;
15381;SDS011;7789;51.364;12.358;2023-08-21T22:47:54;3.97;;;1.25;;
15381;SDS011;7789;51.364;12.358;2023-08-21T22:53:08;4.00;;;1.10;;
15381;SDS011;7789;51.364;12.358;2023-08-21T22:58:13;1.90;;;1.02;;
15381;SDS011;7789;51.364;12.358;2023-08-21T23:03:19;3.83;;;1.45;;
15381;SDS011;7789;51.364;12.358;2023-08-21T23:08:25;2.08;;;1.10;;
15381;SDS011;7789;51.364;12.358;2023-08-21T23:13:30;3.53;;;1.40;;
15381;SDS011;7789;51.364;12.358;2023-08-21T23:18:36;3.90;;;1.50;;
15381;SDS011;7789;51.364;12.358;2023-08-21T23:23:45;3.90;;;1.85;;
15381;SDS011;7789;51.364;12.358;2023-08-21T23:28:54;3.03;;;1.55;;
15381;SDS011;7789;51.364;12.358;2023-08-21T23:33:59;5.05;;;1.83;;
15381;SDS011;7789;51.364;12.358;2023-08-21T23:39:07;4.55;;;1.58;;
15381;SDS011;7789;51.364;12.358;2023-08-21T23:44:13;3.67;;;1.58;;
15381;SDS011;7789;51.364;12.358;2023-08-21T23:49:19;3.13;;;1.40;;
15381;SDS011;7789;51.364;12.358;2023-08-21T23:54:28;3.55;;;1.75;;
15381;SDS011;7789;51.364;12.358;2023-08-21T23:59:33;5.72;;;1.75;;
